Time;durP1;ratioP1;P1;durP2;ratioP2;P2;SDS_P1;SDS_P2;PMS_P1;PMS_P2;Temp;Humidity;BMP_temperature;BMP_pressure;BME280_temperature;BME280_humidity;BME280_pressure;Samples;Min_cycle;Max_cycle;Signal;HPM_P1;HPM_P2
2023/10/20 04:06:08;;;;;;;;;;;;;;;;;;5297275;23;19984;-79
2023/10/20 04:08:35;;;;;;;;;;;;;;;;;;5058204;28;19925;-79
2023/10/20 04:11:02;;;;;;;;;;;;;;;;;;5060370;28;19925;-79
2023/10/20 04:13:31;;;;;;;;;;;;;;;;;;5058750;28;20396;-79
2023/10/20 04:15:58;;;;;;;;;;;;;;;;;;5044757;28;20360;-79
2023/10/20 04:18:26;;;;;;;;;;;;;;;;;;5036987;28;19925;-75
2023/10/20 04:20:53;;;;;;;;;;;;;;;;;;5035735;28;20016;-75
2023/10/20 04:23:20;;;;;;;;;;;;;;;;;;5035124;28;19925;-75
2023/10/20 04:25:52;;;;;;;;;;;;;;;;;;5035065;28;20015;-75
2023/10/20 04:28:20;;;;;;;;;;;;;;;;;;5034922;28;19925;-75
2023/10/20 04:42:43;;;;;;;;;;;;;;;;;;5034971;28;19963;-71
2023/10/20 04:44:58;;;;;;;;;;;;;;;;;;5034302;28;20432;-71
2023/10/20 04:47:56;;;;;;;;;;;;;;;;;;5034747;28;19928;-71
2023/10/20 04:53:32;;;;;;;;;;;;;;;;;;5034441;28;19919;-71
2023/10/20 04:58:49;;;;;;;;;;;;;;;;;;5034885;28;19960;-71
2023/10/20 05:01:21;;;;;;;;;;;;;;;;;;5034474;28;19925;-71
2023/10/20 05:03:52;;;;;;;;;;;;;;;;;;5034218;28;19925;-71
2023/10/20 05:06:25;;;;;;;;;;;;;;;;;;5034113;28;20420;-71
2023/10/20 05:08:52;;;;;;;;;;;;;;;;;;5034426;28;19925;-74
2023/10/20 05:11:19;;;;;;;;;;;;;;;;;;5034059;28;20386;-74
2023/10/20 05:13:46;;;;;;;;;;;;;;;;;;5034282;28;19925;-73
2023/10/20 05:16:13;;;;;;;;;;;;;;;;;;5033887;28;20386;-74
2023/10/20 05:18:40;;;;;;;;;;;;;;;;;;5034552;28;19925;-73
2023/10/20 05:21:08;;;;;;;;;;;;;;;;;;5034772;28;19929;-74
2023/10/20 05:23:36;;;;;;;;;;;;;;;;;;5034135;28;19933;-73
2023/10/20 05:26:03;;;;;;;;;;;;;;;;;;5034073;28;19932;-73
2023/10/20 05:28:30;;;;;;;;;;;;;;;;;;5034193;28;19925;-73
2023/10/20 05:30:57;;;;;;;;;;;;;;;;;;5033755;28;20477;-73
2023/10/20 05:33:25;;;;;;;;;;;;;;;;;;5033958;28;19925;-73
2023/10/20 05:35:52;;;;;;;;;;;;;;;;;;5033800;28;19975;-73
2023/10/20 05:38:20;;;;;;;;;;;;;;;;;;5033944;28;19932;-73
2023/10/20 05:40:47;;;;;;;;;;;;;;;;;;5033828;28;20024;-73
2023/10/20 05:43:14;;;;;;;;;;;;;;;;;;5033854;28;19926;-73
2023/10/20 05:45:41;;;;;;;;;;;;;;;;;;5033523;28;20302;-73
2023/10/20 05:48:08;;;;;;;;;;;;;;;;;;5033935;28;19932;-73
2023/10/20 05:50:35;;;;;;;;;;;;;;;;;;5033541;28;19926;-73
2023/10/20 05:53:02;;;;;;;;;;;;;;;;;;5034373;28;19925;-73
2023/10/20 05:55:29;;;;;;;;;;;;;;;;;;5033799;28;20275;-73
2023/10/20 05:57:56;;;;;;;;;;;;;;;;;;5033863;28;19925;-72
2023/10/20 06:00:23;;;;;;;;;;;;;;;;;;5033452;28;20390;-72
2023/10/20 06:02:50;;;;;;;;;;;;;;;;;;5035041;28;19925;-72
2023/10/20 06:05:18;;;;;;;;;;;;;;;;;;5035610;28;19987;-72
2023/10/20 06:07:47;;;;;;;;;;;;;;;;;;5035454;28;20398;-72
2023/10/20 06:10:21;;;;;;;;;;;;;;;;;;5035120;28;19972;-72
2023/10/20 06:12:48;;;;;;;;;;;;;;;;;;5034512;28;19925;-72
2023/10/20 06:15:15;;;;;;;;;;;;;;;;;;5035560;28;19931;-73
2023/10/20 06:17:42;;;;;;;;;;;;;;;;;;5038819;28;19956;-72
2023/10/20 06:20:10;;;;;;;;;;;;;;;;;;5039559;28;19944;-72
2023/10/20 06:22:37;;;;;;;;;;;;;;;;;;5039120;28;19925;-72
2023/10/20 06:25:10;;;;;;;;;;;;;;;;;;5039103;28;19925;-72
2023/10/20 06:27:37;;;;;;;;;;;;;;;;;;5039848;28;19936;-72
2023/10/20 06:30:06;;;;;;;;;;;;;;;;;;5037028;28;19925;-72
2023/10/20 06:32:42;;;;;;;;;;;;;;;;;;5037308;28;19987;-72
2023/10/20 06:35:09;;;;;;;;;;;;;;;;;;5040952;28;19960;-72
2023/10/20 06:37:41;;;;;;;;;;;;;;;;;;5051700;28;19926;-72
2023/10/20 06:40:08;;;;;;;;;;;;;;;;;;5054047;28;19909;-72
2023/10/20 06:42:35;;;;;;;;;;;;;;;;;;5054617;28;19932;-72
2023/10/20 06:45:04;;;;;;;;;;;;;;;;;;5049262;28;19932;-72
2023/10/20 06:47:32;;;;;;;;;;;;;;;;;;5037874;28;19925;-72
2023/10/20 06:49:59;;;;;;;;;;;;;;;;;;5037252;28;19957;-72
2023/10/20 06:52:26;;;;;;;;;;;;;;;;;;5037505;28;19929;-73
2023/10/20 06:54:56;;;;;;;;;;;;;;;;;;5036741;28;20298;-74
2023/10/20 06:57:23;;;;;;;;;;;;;;;;;;5036774;28;19932;-74
2023/10/20 06:59:50;;;;;;;;;;;;;;;;;;5036875;28;19929;-73
2023/10/20 07:02:16;;;;;;;;;;;;;;;;;;5037033;28;19932;-73
2023/10/20 07:04:43;;;;;;;;;;;;;;;;;;5036380;28;19929;-73
2023/10/20 07:07:13;;;;;;;;;;;;;;;;;;5036509;28;19925;-73
2023/10/20 07:09:41;;;;;;;;;;;;;;;;;;5036597;28;19925;-73
2023/10/20 07:12:09;;;;;;;;;;;;;;;;;;5036335;28;20360;-73
2023/10/20 07:14:38;;;;;;;;;;;;;;;;;;5036500;28;20016;-73
2023/10/20 07:17:06;;;;;;;;;;;;;;;;;;5036495;28;19964;-72
2023/10/20 07:19:34;;;;;;;;;;;;;;;;;;5036442;28;19925;-72
2023/10/20 07:22:02;;;;;;;;;;;;;;;;;;5036392;28;19932;-73
2023/10/20 07:24:29;;;;;;;;;;;;;;;;;;5036472;28;20003;-73
2023/10/20 07:26:56;;;;;;;;;;;;;;;;;;5036228;28;19951;-72
2023/10/20 07:29:23;;;;;;;;;;;;;;;;;;5036500;28;19929;-72
2023/10/20 07:31:51;;;;;;;;;;;;;;;;;;5036376;28;19925;-72
2023/10/20 07:34:18;;;;;;;;;;;;;;;;;;5036220;28;19929;-72
2023/10/20 07:36:46;;;;;;;;;;;;;;;;;;5036134;28;20294;-73
2023/10/20 07:39:16;;;;;;;;;;;;;;;;;;5036416;28;19980;-72
2023/10/20 07:41:43;;;;;;;;;;;;;;;;;;5036337;28;19972;-72
2023/10/20 07:44:10;;;;;;;;;;;;;;;;;;5036072;28;19925;-72
2023/10/20 07:46:36;;;;;;;;;;;;;;;;;;5036070;28;19929;-72
2023/10/20 07:49:04;;;;;;;;;;;;;;;;;;5036028;28;19932;-72
2023/10/20 07:51:31;;;;;;;;;;;;;;;;;;5035981;28;19925;-72
2023/10/20 07:53:58;;;;;;;;;;;;;;;;;;5035686;28;20290;-72
2023/10/20 07:56:25;;;;;;;;;;;;;;;;;;5035778;28;20015;-72
2023/10/20 07:58:52;;;;;;;;;;;;;;;;;;5035982;28;19940;-73
2023/10/20 08:01:21;;;;;;;;;;;;;;;;;;5034865;28;22433;-73
2023/10/20 08:03:48;;;;;;;;;;;;;;;;;;5035913;28;19925;-73
2023/10/20 08:06:15;;;;;;;;;;;;;;;;;;5035542;28;19983;-73
2023/10/20 08:08:42;;;;;;;;;;;;;;;;;;5035086;28;19935;-73
2023/10/20 08:11:09;;;;;;;;;;;;;;;;;;5035527;28;19925;-73
2023/10/20 08:13:37;;;;;;;;;;;;;;;;;;5035435;28;19925;-73
2023/10/20 08:16:04;;;;;;;;;;;;;;;;;;5035194;28;19925;-73
2023/10/20 08:18:34;;;;;;;;;;;;;;;;;;5035184;28;19931;-73
2023/10/20 08:21:00;;;;;;;;;;;;;;;;;;5035240;28;19925;-73
2023/10/20 08:23:27;;;;;;;;;;;;;;;;;;5034961;28;19933;-73
2023/10/20 08:25:54;;;;;;;;;;;;;;;;;;5035132;28;19933;-73
2023/10/20 08:28:21;;;;;;;;;;;;;;;;;;5035272;28;19933;-73
2023/10/20 08:30:49;;;;;;;;;;;;;;;;;;5035055;28;20036;-73
2023/10/20 08:33:16;;;;;;;;;;;;;;;;;;5034743;28;20353;-73
2023/10/20 08:35:43;;;;;;;;;;;;;;;;;;5034877;28;19925;-73
2023/10/20 08:38:10;;;;;;;;;;;;;;;;;;5034460;28;19925;-73
2023/10/20 08:40:37;;;;;;;;;;;;;;;;;;5034396;28;19925;-73
2023/10/20 08:43:04;;;;;;;;;;;;;;;;;;5034564;28;20378;-73
2023/10/20 08:45:31;;;;;;;;;;;;;;;;;;5034607;28;19933;-73
2023/10/20 08:47:58;;;;;;;;;;;;;;;;;;5035359;28;19925;-73
2023/10/20 08:50:25;;;;;;;;;;;;;;;;;;5035100;28;19932;-73
2023/10/20 08:52:53;;;;;;;;;;;;;;;;;;5034643;28;19925;-73
2023/10/20 08:55:19;;;;;;;;;;;;;;;;;;5034760;28;19929;-73
2023/10/20 08:57:46;;;;;;;;;;;;;;;;;;5034604;28;19925;-73
2023/10/20 09:00:20;;;;;;;;;;;;;;;;;;5034560;28;19932;-73
2023/10/20 09:02:47;;;;;;;;;;;;;;;;;;5034210;28;19968;-73
2023/10/20 09:05:14;;;;;;;;;;;;;;;;;;5034364;28;19926;-73
2023/10/20 09:07:41;;;;;;;;;;;;;;;;;;5034266;28;20263;-73
2023/10/20 09:10:08;;;;;;;;;;;;;;;;;;5034329;28;19933;-73
2023/10/20 09:12:36;;;;;;;;;;;;;;;;;;5034376;28;19929;-73
2023/10/20 09:15:03;;;;;;;;;;;;;;;;;;5033916;28;20383;-75
2023/10/20 09:17:33;;;;;;;;;;;;;;;;;;5034441;28;19978;-73
2023/10/20 09:20:00;;;;;;;;;;;;;;;;;;5034157;28;19932;-73
2023/10/20 09:22:28;;;;;;;;;;;;;;;;;;5034339;28;19925;-71
2023/10/20 09:24:56;;;;;;;;;;;;;;;;;;5034285;28;19975;-70
2023/10/20 09:27:23;;;;;;;;;;;;;;;;;;5034449;28;19929;-71
2023/10/20 09:29:50;;;;;;;;;;;;;;;;;;5034320;28;19932;-71
2023/10/20 09:32:17;;;;;;;;;;;;;;;;;;5033848;28;20359;-72
2023/10/20 09:34:44;;;;;;;;;;;;;;;;;;5034095;28;19925;-73
2023/10/20 09:37:10;;;;;;;;;;;;;;;;;;5033977;28;20390;-72
2023/10/20 09:39:37;;;;;;;;;;;;;;;;;;5034148;28;19925;-73
2023/10/20 09:42:04;;;;;;;;;;;;;;;;;;5034463;28;19932;-73
2023/10/20 09:44:31;;;;;;;;;;;;;;;;;;5034099;28;19932;-74
2023/10/20 09:46:58;;;;;;;;;;;;;;;;;;5034167;28;19925;-73
2023/10/20 09:49:25;;;;;;;;;;;;;;;;;;5033711;28;19925;-73
2023/10/20 09:51:52;;;;;;;;;;;;;;;;;;5037876;28;20382;-73
2023/10/20 09:54:21;;;;;;;;;;;;;;;;;;5038050;28;19929;-73
2023/10/20 09:56:49;;;;;;;;;;;;;;;;;;5037789;28;19931;-73
2023/10/20 09:59:16;;;;;;;;;;;;;;;;;;5037886;28;19968;-73
2023/10/20 10:01:43;;;;;;;;;;;;;;;;;;5038011;28;19925;-73
2023/10/20 10:04:09;;;;;;;;;;;;;;;;;;5037924;28;19940;-74
2023/10/20 10:06:36;;;;;;;;;;;;;;;;;;5037439;28;19931;-72
2023/10/20 10:09:04;;;;;;;;;;;;;;;;;;5037548;28;19925;-73
2023/10/20 10:11:31;;;;;;;;;;;;;;;;;;5037754;28;19925;-73
2023/10/20 10:13:58;;;;;;;;;;;;;;;;;;5037971;28;20279;-74
2023/10/20 10:16:25;;;;;;;;;;;;;;;;;;5039223;28;19925;-72
2023/10/20 10:19:00;;;;;;;;;;;;;;;;;;5039672;28;19933;-71
2023/10/20 10:21:29;;;;;;;;;;;;;;;;;;5038478;28;19931;-77
2023/10/20 10:23:56;;;;;;;;;;;;;;;;;;5059092;23;19925;-76
2023/10/20 10:26:23;;;;;;;;;;;;;;;;;;5058823;28;19932;-76
2023/10/20 10:28:50;;;;;;;;;;;;;;;;;;5058579;28;19925;-77
2023/10/20 10:31:17;;;;;;;;;;;;;;;;;;5058371;28;19925;-76
2023/10/20 10:33:44;;;;;;;;;;;;;;;;;;5050984;28;19948;-76
2023/10/20 10:36:11;;;;;;;;;;;;;;;;;;5038862;28;19926;-75
2023/10/20 10:38:38;;;;;;;;;;;;;;;;;;5038308;28;19929;-75
2023/10/20 10:41:06;;;;;;;;;;;;;;;;;;5038662;28;20397;-76
2023/10/20 10:43:32;;;;;;;;;;;;;;;;;;5038032;28;19925;-74
2023/10/20 10:45:59;;;;;;;;;;;;;;;;;;5038360;28;19936;-74
2023/10/20 10:48:28;;;;;;;;;;;;;;;;;;5037990;28;19933;-75
2023/10/20 10:50:56;;;;;;;;;;;;;;;;;;5038204;28;19975;-74
2023/10/20 10:53:22;;;;;;;;;;;;;;;;;;5038514;28;20015;-76
2023/10/20 10:55:49;;;;;;;;;;;;;;;;;;5038521;28;19925;-76
2023/10/20 10:58:16;;;;;;;;;;;;;;;;;;5039829;28;19932;-76
2023/10/20 11:00:43;;;;;;;;;;;;;;;;;;5038532;28;19925;-77
2023/10/20 11:03:10;;;;;;;;;;;;;;;;;;5037614;28;19952;-76
2023/10/20 11:05:37;;;;;;;;;;;;;;;;;;5038145;28;19932;-77
2023/10/20 11:08:04;;;;;;;;;;;;;;;;;;5038226;28;19925;-76
2023/10/20 11:10:32;;;;;;;;;;;;;;;;;;5038511;28;19925;-76
2023/10/20 11:12:59;;;;;;;;;;;;;;;;;;5038280;28;20098;-76
2023/10/20 11:15:26;;;;;;;;;;;;;;;;;;5039257;28;19931;-76
2023/10/20 11:17:53;;;;;;;;;;;;;;;;;;5039312;28;19925;-76
2023/10/20 11:20:21;;;;;;;;;;;;;;;;;;5038987;28;19987;-75
2023/10/20 11:22:48;;;;;;;;;;;;;;;;;;5037758;28;20301;-76
2023/10/20 11:25:15;;;;;;;;;;;;;;;;;;5037182;28;19932;-76
2023/10/20 11:27:42;;;;;;;;;;;;;;;;;;5037607;28;19931;-76
2023/10/20 11:30:09;;;;;;;;;;;;;;;;;;5037386;28;19936;-76
2023/10/20 11:32:36;;;;;;;;;;;;;;;;;;5037556;28;19983;-76
2023/10/20 11:35:04;;;;;;;;;;;;;;;;;;5037906;28;19925;-75
2023/10/20 11:37:31;;;;;;;;;;;;;;;;;;5037866;28;19932;-76
2023/10/20 11:39:58;;;;;;;;;;;;;;;;;;5037347;28;19932;-76
2023/10/20 11:42:25;;;;;;;;;;;;;;;;;;5037495;28;19925;-76
2023/10/20 11:44:52;;;;;;;;;;;;;;;;;;5037666;28;20289;-76
2023/10/20 11:47:19;;;;;;;;;;;;;;;;;;5038081;28;19978;-76
2023/10/20 11:49:46;;;;;;;;;;;;;;;;;;5038453;28;19926;-76
2023/10/20 11:52:13;;;;;;;;;;;;;;;;;;5038280;28;19929;-77
2023/10/20 11:54:40;;;;;;;;;;;;;;;;;;5037773;28;19925;-77
2023/10/20 11:57:08;;;;;;;;;;;;;;;;;;5038215;28;19925;-77
2023/10/20 11:59:36;;;;;;;;;;;;;;;;;;5038777;28;19929;-77
2023/10/20 12:02:03;;;;;;;;;;;;;;;;;;5038770;28;19925;-76
2023/10/20 12:04:30;;;;;;;;;;;;;;;;;;5038683;28;20020;-77
2023/10/20 12:06:57;;;;;;;;;;;;;;;;;;5038074;28;19932;-77
2023/10/20 12:09:24;;;;;;;;;;;;;;;;;;5037995;28;19962;-76
2023/10/20 12:11:52;;;;;;;;;;;;;;;;;;5037679;28;19932;-77
2023/10/20 12:14:18;;;;;;;;;;;;;;;;;;5036807;28;19979;-76
2023/10/20 12:16:46;;;;;;;;;;;;;;;;;;5037743;28;19925;-77
2023/10/20 12:19:13;;;;;;;;;;;;;;;;;;5040025;28;19968;-76
2023/10/20 12:21:40;;;;;;;;;;;;;;;;;;5041337;28;19925;-76
2023/10/20 12:24:07;;;;;;;;;;;;;;;;;;5041839;28;20366;-76
2023/10/20 12:26:34;;;;;;;;;;;;;;;;;;5040602;28;19932;-76
2023/10/20 12:29:01;;;;;;;;;;;;;;;;;;5040523;28;19925;-76
2023/10/20 12:31:29;;;;;;;;;;;;;;;;;;5041202;28;20398;-76
2023/10/20 12:33:55;;;;;;;;;;;;;;;;;;5042077;28;19988;-76
2023/10/20 12:36:24;;;;;;;;;;;;;;;;;;5041191;28;19925;-76
2023/10/20 12:38:51;;;;;;;;;;;;;;;;;;5040869;28;20302;-76
2023/10/20 12:41:19;;;;;;;;;;;;;;;;;;5039862;28;19928;-75
2023/10/20 12:43:47;;;;;;;;;;;;;;;;;;5041222;28;19932;-77
2023/10/20 12:46:14;;;;;;;;;;;;;;;;;;5040287;28;19925;-77
2023/10/20 12:48:41;;;;;;;;;;;;;;;;;;5040582;28;20031;-76
2023/10/20 12:51:08;;;;;;;;;;;;;;;;;;5039631;28;19931;-76
2023/10/20 12:53:35;;;;;;;;;;;;;;;;;;5041516;28;19925;-77
2023/10/20 12:56:02;;;;;;;;;;;;;;;;;;5041725;28;19931;-77
2023/10/20 12:58:29;;;;;;;;;;;;;;;;;;5041369;28;20386;-75
2023/10/20 13:00:57;;;;;;;;;;;;;;;;;;5042846;28;19925;-74
2023/10/20 13:03:24;;;;;;;;;;;;;;;;;;5043350;28;20297;-75
2023/10/20 13:05:51;;;;;;;;;;;;;;;;;;5044351;28;19925;-74
2023/10/20 13:08:18;;;;;;;;;;;;;;;;;;5043034;28;20301;-76
2023/10/20 13:10:47;;;;;;;;;;;;;;;;;;5042749;28;19956;-76
2023/10/20 13:13:14;;;;;;;;;;;;;;;;;;5040347;28;19932;-75
2023/10/20 13:15:41;;;;;;;;;;;;;;;;;;5035538;28;19972;-75
2023/10/20 13:18:08;;;;;;;;;;;;;;;;;;5035623;28;20293;-76
2023/10/20 13:20:36;;;;;;;;;;;;;;;;;;5035590;28;19925;-75
2023/10/20 13:23:03;;;;;;;;;;;;;;;;;;5035018;28;19932;-77
2023/10/20 13:25:30;;;;;;;;;;;;;;;;;;5034377;28;19929;-77
2023/10/20 13:27:59;;;;;;;;;;;;;;;;;;5034664;28;19926;-77
2023/10/20 13:30:25;;;;;;;;;;;;;;;;;;5034965;28;19925;-78
2023/10/20 13:32:53;;;;;;;;;;;;;;;;;;5036716;28;19931;-77
2023/10/20 13:35:21;;;;;;;;;;;;;;;;;;5036817;28;19936;-77
2023/10/20 13:37:49;;;;;;;;;;;;;;;;;;5034707;28;19931;-77
2023/10/20 13:40:17;;;;;;;;;;;;;;;;;;5036015;28;19968;-76
2023/10/20 13:42:44;;;;;;;;;;;;;;;;;;5035719;28;19979;-77
2023/10/20 13:45:12;;;;;;;;;;;;;;;;;;5035221;28;20033;-76
2023/10/20 13:47:39;;;;;;;;;;;;;;;;;;5036389;28;19925;-76
2023/10/20 13:50:06;;;;;;;;;;;;;;;;;;5036024;28;19925;-76
2023/10/20 13:52:35;;;;;;;;;;;;;;;;;;5038046;28;19947;-77
2023/10/20 13:55:02;;;;;;;;;;;;;;;;;;5036859;28;20016;-77
2023/10/20 13:57:29;;;;;;;;;;;;;;;;;;5035787;28;19932;-77
2023/10/20 13:59:56;;;;;;;;;;;;;;;;;;5036264;28;19933;-78
2023/10/20 14:02:23;;;;;;;;;;;;;;;;;;5039213;28;19932;-79
2023/10/20 14:04:50;;;;;;;;;;;;;;;;;;5040310;28;20294;-78
2023/10/20 14:07:17;;;;;;;;;;;;;;;;;;5040324;28;19929;-79
2023/10/20 14:09:44;;;;;;;;;;;;;;;;;;5040430;28;19925;-79
2023/10/20 14:12:10;;;;;;;;;;;;;;;;;;5037372;28;20044;-79
2023/10/20 14:14:37;;;;;;;;;;;;;;;;;;5039460;28;19925;-78
2023/10/20 14:17:06;;;;;;;;;;;;;;;;;;5036003;28;19932;-76
2023/10/20 14:19:33;;;;;;;;;;;;;;;;;;5033872;28;20298;-76
2023/10/20 14:22:00;;;;;;;;;;;;;;;;;;5033639;28;20394;-77
2023/10/20 14:24:27;;;;;;;;;;;;;;;;;;5033884;28;19931;-76
2023/10/20 14:26:54;;;;;;;;;;;;;;;;;;5033402;28;20267;-76
2023/10/20 14:29:21;;;;;;;;;;;;;;;;;;5033897;28;19929;-76
2023/10/20 14:31:48;;;;;;;;;;;;;;;;;;5033891;28;19947;-76
2023/10/20 14:34:15;;;;;;;;;;;;;;;;;;5033744;28;19925;-76
2023/10/20 14:36:42;;;;;;;;;;;;;;;;;;5033577;28;19925;-76
2023/10/20 14:39:11;;;;;;;;;;;;;;;;;;5037429;28;20321;-77
2023/10/20 14:41:38;;;;;;;;;;;;;;;;;;5037406;28;19975;-77
2023/10/20 14:44:05;;;;;;;;;;;;;;;;;;5037208;28;20461;-75
2023/10/20 14:46:32;;;;;;;;;;;;;;;;;;5038723;28;19925;-74
2023/10/20 14:48:59;;;;;;;;;;;;;;;;;;5037757;28;19933;-75
2023/10/20 14:51:26;;;;;;;;;;;;;;;;;;5038961;28;19925;-76
2023/10/20 14:53:53;;;;;;;;;;;;;;;;;;5039733;28;20283;-74
2023/10/20 14:56:20;;;;;;;;;;;;;;;;;;5042086;28;19935;-75
2023/10/20 14:58:47;;;;;;;;;;;;;;;;;;5040512;28;19925;-74
2023/10/20 15:01:14;;;;;;;;;;;;;;;;;;5039379;28;19925;-75
2023/10/20 15:03:41;;;;;;;;;;;;;;;;;;5039246;28;19932;-76
2023/10/20 15:06:08;;;;;;;;;;;;;;;;;;5042334;28;19931;-79
2023/10/20 15:08:35;;;;;;;;;;;;;;;;;;5043553;28;19929;-78
2023/10/20 15:11:03;;;;;;;;;;;;;;;;;;5044750;28;19932;-79
2023/10/20 15:13:31;;;;;;;;;;;;;;;;;;5043578;28;19979;-79
2023/10/20 15:15:58;;;;;;;;;;;;;;;;;;5043159;28;20404;-79
2023/10/20 15:18:25;;;;;;;;;;;;;;;;;;5043742;28;19933;-80
2023/10/20 15:20:52;;;;;;;;;;;;;;;;;;5042988;28;19925;-79
2023/10/20 15:23:19;;;;;;;;;;;;;;;;;;5039076;28;19987;-78
2023/10/20 15:25:46;;;;;;;;;;;;;;;;;;5042672;28;19932;-80
2023/10/20 15:28:13;;;;;;;;;;;;;;;;;;5040275;28;19931;-79
2023/10/20 15:30:39;;;;;;;;;;;;;;;;;;5041848;28;19925;-79
2023/10/20 15:33:06;;;;;;;;;;;;;;;;;;5041870;28;19925;-79
2023/10/20 15:35:33;;;;;;;;;;;;;;;;;;5041413;28;19971;-80
2023/10/20 15:38:01;;;;;;;;;;;;;;;;;;5047435;28;19932;-79
2023/10/20 15:40:28;;;;;;;;;;;;;;;;;;5050808;28;19992;-78
2023/10/20 15:42:55;;;;;;;;;;;;;;;;;;5049239;28;19925;-77
2023/10/20 15:45:22;;;;;;;;;;;;;;;;;;5049686;28;20020;-78
2023/10/20 15:47:50;;;;;;;;;;;;;;;;;;5045606;28;19925;-79
2023/10/20 15:50:17;;;;;;;;;;;;;;;;;;5040467;28;19971;-80
2023/10/20 15:52:44;;;;;;;;;;;;;;;;;;5045052;28;20298;-78
2023/10/20 15:55:12;;;;;;;;;;;;;;;;;;5048761;28;19925;-79
2023/10/20 15:57:39;;;;;;;;;;;;;;;;;;5049533;28;20397;-79
2023/10/20 16:00:06;;;;;;;;;;;;;;;;;;5051362;28;19925;-79
2023/10/20 16:02:33;;;;;;;;;;;;;;;;;;5053312;28;19932;-79
2023/10/20 16:05:00;;;;;;;;;;;;;;;;;;5049673;28;19964;-80
2023/10/20 16:07:27;;;;;;;;;;;;;;;;;;5056280;28;19925;-80
2023/10/20 16:09:54;;;;;;;;;;;;;;;;;;5057211;28;19932;-80
2023/10/20 16:12:20;;;;;;;;;;;;;;;;;;5053631;28;19925;-79
2023/10/20 16:14:47;;;;;;;;;;;;;;;;;;5052049;28;19925;-79
2023/10/20 16:17:14;;;;;;;;;;;;;;;;;;5053048;28;19925;-81
2023/10/20 16:19:43;;;;;;;;;;;;;;;;;;5051283;28;19935;-80
2023/10/20 16:22:10;;;;;;;;;;;;;;;;;;5049720;28;19980;-80
2023/10/20 16:24:38;;;;;;;;;;;;;;;;;;5073727;23;20008;-72
2023/10/20 16:27:05;;;;;;;;;;;;;;;;;;5054830;28;20381;-73
2023/10/20 16:29:32;;;;;;;;;;;;;;;;;;5054959;28;19931;-73
2023/10/20 16:31:59;;;;;;;;;;;;;;;;;;5055026;28;20302;-73
2023/10/20 16:34:26;;;;;;;;;;;;;;;;;;5045782;28;19932;-72
2023/10/20 16:36:53;;;;;;;;;;;;;;;;;;5034929;28;19928;-72
2023/10/20 16:39:22;;;;;;;;;;;;;;;;;;5034932;28;19925;-72
2023/10/20 16:41:49;;;;;;;;;;;;;;;;;;5035369;28;19931;-72
2023/10/20 16:44:16;;;;;;;;;;;;;;;;;;5034828;28;19925;-72
2023/10/20 16:46:43;;;;;;;;;;;;;;;;;;5034781;28;19936;-72
2023/10/20 16:49:10;;;;;;;;;;;;;;;;;;5035333;28;19925;-76
2023/10/20 16:51:38;;;;;;;;;;;;;;;;;;5034703;28;19968;-76
2023/10/20 16:54:05;;;;;;;;;;;;;;;;;;5034352;28;20352;-73
2023/10/20 16:56:32;;;;;;;;;;;;;;;;;;5034633;28;19932;-73
2023/10/20 16:58:59;;;;;;;;;;;;;;;;;;5034537;28;19925;-74
2023/10/20 17:01:29;;;;;;;;;;;;;;;;;;5034425;28;19933;-73
2023/10/20 17:03:55;;;;;;;;;;;;;;;;;;5034505;28;19971;-73
2023/10/20 17:06:22;;;;;;;;;;;;;;;;;;5034349;28;19932;-74
2023/10/20 17:08:49;;;;;;;;;;;;;;;;;;5034502;28;19933;-74
2023/10/20 17:11:16;;;;;;;;;;;;;;;;;;5034454;28;19975;-74
2023/10/20 17:13:43;;;;;;;;;;;;;;;;;;5034045;28;19925;-74
2023/10/20 17:16:10;;;;;;;;;;;;;;;;;;5034255;28;19932;-74
2023/10/20 17:18:37;;;;;;;;;;;;;;;;;;5034579;28;20401;-75
2023/10/20 17:21:04;;;;;;;;;;;;;;;;;;5034261;28;19929;-75
2023/10/20 17:23:32;;;;;;;;;;;;;;;;;;5033756;28;20397;-75
2023/10/20 17:25:59;;;;;;;;;;;;;;;;;;5034153;28;19979;-75
2023/10/20 17:28:26;;;;;;;;;;;;;;;;;;5034166;28;20398;-75
2023/10/20 17:30:52;;;;;;;;;;;;;;;;;;5034096;28;19925;-72
2023/10/20 17:33:19;;;;;;;;;;;;;;;;;;5034223;28;19967;-73
2023/10/20 17:35:46;;;;;;;;;;;;;;;;;;5034775;28;19956;-73
2023/10/20 17:38:13;;;;;;;;;;;;;;;;;;5034060;28;20103;-74
2023/10/20 17:40:40;;;;;;;;;;;;;;;;;;5033788;28;20436;-75
2023/10/20 17:43:07;;;;;;;;;;;;;;;;;;5033986;28;19932;-76
2023/10/20 17:45:34;;;;;;;;;;;;;;;;;;5033828;28;19929;-76
2023/10/20 17:48:00;;;;;;;;;;;;;;;;;;5033831;28;19926;-76
2023/10/20 17:50:27;;;;;;;;;;;;;;;;;;5039391;28;19932;-76
2023/10/20 17:52:54;;;;;;;;;;;;;;;;;;5041834;28;19932;-76
2023/10/20 17:55:21;;;;;;;;;;;;;;;;;;5041662;28;19925;-76
2023/10/20 17:57:48;;;;;;;;;;;;;;;;;;5041965;28;19975;-76
2023/10/20 18:00:15;;;;;;;;;;;;;;;;;;5035933;28;19929;-76
2023/10/20 18:02:42;;;;;;;;;;;;;;;;;;5034682;28;19925;-76
2023/10/20 18:05:11;;;;;;;;;;;;;;;;;;5034360;28;19932;-76
2023/10/20 18:07:37;;;;;;;;;;;;;;;;;;5033375;28;19928;-76
2023/10/20 18:10:05;;;;;;;;;;;;;;;;;;5033900;28;19932;-77
2023/10/20 18:12:32;;;;;;;;;;;;;;;;;;5035320;28;19925;-76
2023/10/20 18:14:59;;;;;;;;;;;;;;;;;;5037821;28;19932;-76
2023/10/20 18:17:26;;;;;;;;;;;;;;;;;;5037942;28;19925;-76
2023/10/20 18:19:53;;;;;;;;;;;;;;;;;;5037493;28;20274;-76
2023/10/20 18:22:19;;;;;;;;;;;;;;;;;;5037685;28;19926;-76
2023/10/20 18:24:47;;;;;;;;;;;;;;;;;;5037291;28;19947;-76
2023/10/20 18:27:13;;;;;;;;;;;;;;;;;;5037427;28;19929;-76
2023/10/20 18:29:40;;;;;;;;;;;;;;;;;;5037587;28;19932;-76
2023/10/20 18:32:07;;;;;;;;;;;;;;;;;;5037101;28;20286;-76
2023/10/20 18:34:34;;;;;;;;;;;;;;;;;;5037357;28;19925;-76
2023/10/20 18:37:01;;;;;;;;;;;;;;;;;;5037089;28;20385;-77
2023/10/20 18:39:28;;;;;;;;;;;;;;;;;;5038299;28;19932;-73
2023/10/20 18:41:55;;;;;;;;;;;;;;;;;;5037948;28;20309;-74
2023/10/20 18:44:22;;;;;;;;;;;;;;;;;;5037607;28;19925;-73
2023/10/20 18:46:49;;;;;;;;;;;;;;;;;;5037101;28;20405;-73
2023/10/20 18:49:16;;;;;;;;;;;;;;;;;;5037259;28;19932;-73
2023/10/20 18:51:43;;;;;;;;;;;;;;;;;;5037992;28;19975;-74
2023/10/20 18:54:10;;;;;;;;;;;;;;;;;;5038345;28;19968;-75
2023/10/20 18:56:37;;;;;;;;;;;;;;;;;;5038578;28;19968;-75
2023/10/20 18:59:05;;;;;;;;;;;;;;;;;;5037932;28;20341;-74
2023/10/20 19:01:32;;;;;;;;;;;;;;;;;;5038229;28;20283;-75
2023/10/20 19:04:00;;;;;;;;;;;;;;;;;;5037675;28;19932;-72
2023/10/20 19:06:28;;;;;;;;;;;;;;;;;;5037754;28;19932;-75
2023/10/20 19:08:55;;;;;;;;;;;;;;;;;;5038103;28;19925;-74
2023/10/20 19:11:22;;;;;;;;;;;;;;;;;;5038095;28;19926;-74
2023/10/20 19:13:48;;;;;;;;;;;;;;;;;;5037711;28;19925;-74
2023/10/20 19:16:17;;;;;;;;;;;;;;;;;;5037513;28;19925;-74
2023/10/20 19:18:44;;;;;;;;;;;;;;;;;;5037668;28;20390;-75
2023/10/20 19:21:11;;;;;;;;;;;;;;;;;;5036964;28;19999;-74
2023/10/20 19:23:38;;;;;;;;;;;;;;;;;;5036577;28;20023;-73
2023/10/20 19:26:07;;;;;;;;;;;;;;;;;;5036807;28;20390;-73
2023/10/20 19:28:34;;;;;;;;;;;;;;;;;;5036838;28;19979;-75
2023/10/20 19:31:01;;;;;;;;;;;;;;;;;;5037172;28;19925;-75
2023/10/20 19:33:28;;;;;;;;;;;;;;;;;;5036831;28;19931;-75
2023/10/20 19:35:55;;;;;;;;;;;;;;;;;;5038122;28;19931;-74
2023/10/20 19:38:22;;;;;;;;;;;;;;;;;;5036815;28;19940;-76
2023/10/20 19:40:49;;;;;;;;;;;;;;;;;;5037206;28;19925;-73
2023/10/20 19:43:16;;;;;;;;;;;;;;;;;;5037139;28;19925;-75
2023/10/20 19:45:43;;;;;;;;;;;;;;;;;;5037024;28;19932;-74
2023/10/20 19:48:10;;;;;;;;;;;;;;;;;;5036781;28;19932;-74
2023/10/20 19:50:38;;;;;;;;;;;;;;;;;;5037281;28;19932;-75
2023/10/20 19:53:05;;;;;;;;;;;;;;;;;;5037037;28;20386;-75
2023/10/20 19:55:31;;;;;;;;;;;;;;;;;;5036471;28;19925;-74
2023/10/20 19:57:59;;;;;;;;;;;;;;;;;;5037447;28;20409;-74
2023/10/20 20:00:26;;;;;;;;;;;;;;;;;;5036885;28;19925;-73
2023/10/20 20:02:53;;;;;;;;;;;;;;;;;;5037260;28;19932;-74
2023/10/20 20:05:19;;;;;;;;;;;;;;;;;;5036732;28;19925;-72
2023/10/20 20:07:46;;;;;;;;;;;;;;;;;;5037134;28;19925;-74
2023/10/20 20:10:14;;;;;;;;;;;;;;;;;;5036973;28;19955;-74
2023/10/20 20:12:42;;;;;;;;;;;;;;;;;;5036947;28;19925;-74
2023/10/20 20:15:09;;;;;;;;;;;;;;;;;;5036027;28;20389;-74
2023/10/20 20:17:35;;;;;;;;;;;;;;;;;;5036375;28;19925;-74
2023/10/20 20:20:03;;;;;;;;;;;;;;;;;;5036575;28;19925;-75
2023/10/20 20:22:30;;;;;;;;;;;;;;;;;;5036372;28;19987;-75
2023/10/20 20:24:57;;;;;;;;;;;;;;;;;;5036335;28;19932;-74
2023/10/20 20:27:24;;;;;;;;;;;;;;;;;;5036167;28;20329;-74
2023/10/20 20:29:51;;;;;;;;;;;;;;;;;;5036407;28;19933;-73
2023/10/20 20:32:18;;;;;;;;;;;;;;;;;;5036091;28;19925;-74
2023/10/20 20:34:45;;;;;;;;;;;;;;;;;;5034928;28;20413;-73
2023/10/20 20:37:12;;;;;;;;;;;;;;;;;;5035586;28;19925;-73
2023/10/20 20:39:39;;;;;;;;;;;;;;;;;;5035915;28;19990;-74
2023/10/20 20:42:06;;;;;;;;;;;;;;;;;;5035802;28;19926;-74
2023/10/20 20:44:34;;;;;;;;;;;;;;;;;;5035846;28;19925;-74
2023/10/20 20:47:00;;;;;;;;;;;;;;;;;;5035623;28;19929;-74
2023/10/20 20:49:27;;;;;;;;;;;;;;;;;;5035784;28;19925;-73
2023/10/20 20:51:54;;;;;;;;;;;;;;;;;;5035822;28;19929;-73
2023/10/20 20:54:21;;;;;;;;;;;;;;;;;;5035583;28;20358;-74
2023/10/20 20:56:48;;;;;;;;;;;;;;;;;;5035976;28;19925;-73
2023/10/20 20:59:15;;;;;;;;;;;;;;;;;;5035494;28;20378;-73
2023/10/20 21:01:42;;;;;;;;;;;;;;;;;;5035937;28;19931;-73
2023/10/20 21:04:09;;;;;;;;;;;;;;;;;;5035484;28;19925;-73
2023/10/20 21:06:36;;;;;;;;;;;;;;;;;;5034537;28;19932;-71
2023/10/20 21:09:04;;;;;;;;;;;;;;;;;;5034531;28;19932;-73